Terminal Aerodrome Forecast
Issued by NWS

Home | Current Version | Previous Version | Graphics & Text | Print | Product List | Glossary On
Versions: 1 2 3 4 5 6 7 8 9 10 11 12 13 14 15 16 17 18 19 20
000
FTUS43 KBIS 301100
TAFJMS
TAF
KJMS 301139Z 3012/0112 12013KT P6SM OVC005
     FM301600 12017G26KT 5SM -SHRA VCTS BKN012 OVC020CB
     FM010000 15018KT 4SM -SHRA VCTS BKN008 OVC020CB
     FM010600 23014KT 6SM BR VCSH BKN008 OVC012=

USA.gov is the U.S. government's official web portal to all federal, state and local government web resources and services.